Time;durP1;ratioP1;P1;durP2;ratioP2;P2;SDS_P1;SDS_P2;PMS_P1;PMS_P2;Temp;Humidity;BMP_temperature;BMP_pressure;BME280_temperature;BME280_humidity;BME280_pressure;Samples;Min_cycle;Max_cycle;Signal;HPM_P1;HPM_P2
2022/01/22 00:01:45;;;;;;;5.50;3.40;;;;;;;-1.13;53.75;94789.19;5036265;28;20190;-78
2022/01/22 00:04:11;;;;;;;2.38;2.13;;;;;;;-0.98;52.91;94785.44;5053731;28;20187;-78
2022/01/22 00:06:40;;;;;;;4.40;3.60;;;;;;;-0.81;53.26;94787.47;5030009;28;20199;-78
2022/01/22 00:09:09;;;;;;;2.80;2.70;;;;;;;-1.07;52.02;94784.38;5018887;28;20287;-78
2022/01/22 00:11:41;;;;;;;4.70;3.95;;;;;;;-1.00;53.31;94777.84;5037566;28;20600;-78
2022/01/22 00:14:26;;;;;;;3.15;2.95;;;;;;;-0.73;52.53;94783.50;5035296;28;20601;-78
2022/01/22 00:16:57;;;;;;;6.43;3.80;;;;;;;-0.50;51.38;94791.94;5025938;28;20196;-79
2022/01/22 00:19:28;;;;;;;3.60;3.30;;;;;;;-0.42;51.44;94799.84;5040344;28;20180;-78
2022/01/22 00:21:59;;;;;;;3.88;2.70;;;;;;;-0.62;52.17;94796.31;5028857;28;20175;-79
2022/01/22 00:24:36;;;;;;;4.07;2.72;;;;;;;-0.75;52.15;94791.31;5029047;28;20210;-78
2022/01/22 00:27:07;;;;;;;3.30;2.95;;;;;;;-0.85;52.58;94786.09;5054992;28;20255;-79
2022/01/22 00:29:43;;;;;;;5.78;2.72;;;;;;;-0.86;52.89;94797.28;5031947;28;20221;-78
2022/01/22 00:32:16;;;;;;;2.83;2.50;;;;;;;-0.95;52.56;94794.63;5029360;28;20198;-77
2022/01/22 00:34:44;;;;;;;8.07;2.33;;;;;;;-0.54;51.85;94793.13;5022888;28;20188;-78
2022/01/22 00:37:17;;;;;;;4.15;3.30;;;;;;;-0.79;53.23;94779.66;5032707;28;20206;-78
2022/01/22 00:39:48;;;;;;;4.20;3.22;;;;;;;-0.58;52.22;94794.31;5055011;28;20175;-79
2022/01/22 00:42:21;;;;;;;4.05;2.45;;;;;;;-0.33;51.51;94788.81;5038482;28;20269;-79
2022/01/22 00:44:51;;;;;;;3.95;3.10;;;;;;;-0.37;51.60;94784.88;5054054;28;20240;-79
2022/01/22 00:47:29;;;;;;;3.38;3.03;;;;;;;-0.56;51.91;94795.00;5033097;28;20182;-78
2022/01/22 00:49:58;;;;;;;2.85;2.35;;;;;;;-0.74;51.81;94798.09;5020494;28;20203;-77
2022/01/22 00:52:31;;;;;;;4.70;2.58;;;;;;;-1.00;52.04;94788.13;5046788;28;20208;-77
2022/01/22 00:54:57;;;;;;;1.42;1.33;;;;;;;-0.98;51.52;94800.84;5047424;28;20171;-77
2022/01/22 00:57:25;;;;;;;7.50;3.00;;;;;;;-0.60;51.02;94795.22;5032891;28;20184;-78
2022/01/22 00:59:51;;;;;;;2.80;2.63;;;;;;;-0.49;51.41;94798.72;5027188;28;20183;-77
2022/01/22 01:02:17;;;;;;;1.70;1.60;;;;;;;-0.98;51.64;94788.81;5032220;28;20179;-77
2022/01/22 01:04:43;;;;;;;4.28;3.53;;;;;;;-0.70;52.19;94789.22;5053719;28;20194;-77
2022/01/22 01:07:09;;;;;;;3.00;2.80;;;;;;;-0.82;51.86;94785.84;5038032;28;20186;-77
2022/01/22 01:09:37;;;;;;;4.80;3.10;;;;;;;-0.46;51.62;94796.69;5031475;28;20211;-78
2022/01/22 01:12:06;;;;;;;7.22;2.72;;;;;;;-0.86;52.14;94791.34;5032258;28;20422;-78
2022/01/22 01:14:45;;;;;;;6.00;3.35;;;;;;;-0.89;53.06;94789.00;5033167;28;20297;-78
2022/01/22 01:34:14;;;;;;;1.52;1.42;;;;;;;-0.72;50.78;94769.69;5049652;28;20206;-78
2022/01/22 01:36:44;;;;;;;3.45;2.15;;;;;;;-0.24;49.98;94759.78;5031985;28;20654;-79
2022/01/22 01:39:14;;;;;;;6.78;2.80;;;;;;;-0.09;49.78;94751.78;5030718;28;20171;-80
2022/01/22 01:44:39;;;;;;;3.30;3.10;;;;;;;-0.44;49.71;94752.88;5005043;28;20202;-79
2022/01/22 01:47:06;;;;;;;3.55;2.65;;;;;;;-0.73;51.55;94756.03;5049572;28;20237;-79
2022/01/22 01:49:32;;;;;;;3.00;2.22;;;;;;;-0.53;50.70;94748.47;5048947;28;20226;-79
2022/01/22 01:52:01;;;;;;;4.07;3.07;;;;;;;-0.60;51.45;94743.84;5032342;28;20572;-79
2022/01/22 01:59:40;;;;;;;5.25;2.80;;;;;;;-0.33;49.58;94739.16;5048569;28;20191;-79
2022/01/22 02:02:06;;;;;;;4.28;2.40;;;;;;;-0.40;50.35;94738.84;5048503;28;20210;-79
2022/01/22 02:04:31;;;;;;;7.90;2.70;;;;;;;-0.46;50.15;94742.72;5031051;28;20191;-79
2022/01/22 02:06:57;;;;;;;3.00;2.40;;;;;;;-0.20;49.62;94745.72;5030146;28;20410;-78
2022/01/22 02:09:23;;;;;;;3.40;2.70;;;;;;;-0.43;50.26;94744.25;5030513;28;20203;-78
2022/01/22 02:12:02;;;;;;;6.97;3.17;;;;;;;-0.50;50.54;94749.06;5047551;28;20437;-79
2022/01/22 02:25:24;;;;;;;2.30;2.10;;;;;;;-0.23;50.20;94725.44;5047354;28;20182;-77
2022/01/22 02:27:49;;;;;;;6.47;2.77;;;;;;;-0.41;49.77;94721.78;5029948;28;20183;-78
2022/01/22 02:30:21;;;;;;;3.97;2.33;;;;;;;-0.41;50.02;94726.94;5037399;28;20191;-77
2022/01/22 02:33:22;;;;;;;2.60;1.75;;;;;;;-0.74;50.38;94727.91;5031396;28;20191;-78
2022/01/22 02:38:18;;;;;;;2.00;1.70;;;;;;;-1.17;51.00;94719.31;5049998;28;20176;-78
2022/01/22 02:40:48;;;;;;;2.90;2.33;;;;;;;-1.27;51.07;94719.22;5011807;28;20180;-77
2022/01/22 02:43:16;;;;;;;3.53;2.10;;;;;;;-1.42;51.78;94710.16;5029670;28;20176;-77
2022/01/22 02:45:44;;;;;;;2.33;2.05;;;;;;;-1.17;52.08;94716.72;5041009;28;20278;-78
2022/01/22 02:48:10;;;;;;;2.42;2.22;;;;;;;-0.99;50.88;94717.84;5032701;28;20198;-78
2022/01/22 02:50:35;;;;;;;2.47;2.28;;;;;;;-0.97;50.45;94722.84;5047405;28;20210;-78
2022/01/22 02:53:07;;;;;;;1.90;1.60;;;;;;;-0.90;50.79;94720.63;5015681;28;20200;-78
2022/01/22 02:55:34;;;;;;;4.38;2.30;;;;;;;-0.70;49.85;94714.69;5022622;28;20737;-78
2022/01/22 02:58:00;;;;;;;1.42;1.33;;;;;;;-1.04;50.85;94721.72;5032238;28;20198;-78
2022/01/22 03:00:27;;;;;;;3.25;2.47;;;;;;;-0.76;50.65;94722.88;5022019;28;20186;-79
2022/01/22 03:02:53;;;;;;;3.10;2.90;;;;;;;-1.57;51.81;94717.28;5051276;28;20187;-78
2022/01/22 03:05:19;;;;;;;3.85;2.53;;;;;;;-0.85;50.19;94718.50;5030677;28;20250;-79
2022/01/22 03:07:50;;;;;;;2.80;2.63;;;;;;;-1.13;50.94;94718.13;5048790;28;20179;-78
2022/01/22 03:10:22;;;;;;;2.75;2.55;;;;;;;-1.16;50.98;94717.53;5048325;28;20201;-78
2022/01/22 03:29:08;;;;;;;6.20;2.80;;;;;;;-1.34;50.97;94671.06;5047558;28;20213;-78
2022/01/22 03:31:34;;;;;;;2.20;2.10;;;;;;;-1.16;51.38;94668.75;5029796;28;20566;-78
2022/01/22 03:34:00;;;;;;;1.90;1.80;;;;;;;-1.07;50.11;94670.59;5029711;28;20180;-78
2022/01/22 03:36:29;;;;;;;3.23;2.17;;;;;;;-0.77;49.16;94664.75;5031694;28;20191;-78
2022/01/22 03:38:55;;;;;;;3.28;2.45;;;;;;;-0.90;50.09;94661.53;5047106;28;20171;-77
2022/01/22 03:41:23;;;;;;;3.30;2.27;;;;;;;-1.31;50.67;94657.97;5030665;28;20201;-81
2022/01/22 03:43:50;;;;;;;4.05;2.80;;;;;;;-1.25;51.37;94667.72;5029145;28;20462;-79
2022/01/22 03:46:16;;;;;;;4.38;2.50;;;;;;;-0.78;50.13;94665.69;5028472;28;20183;-79
2022/01/22 03:48:41;;;;;;;1.40;1.10;;;;;;;-1.04;50.34;94667.81;5028634;28;20202;-80
2022/01/22 03:51:07;;;;;;;8.60;4.33;;;;;;;-1.29;50.84;94663.78;5024933;28;20238;-79
2022/01/22 03:53:33;;;;;;;6.73;2.93;;;;;;;-0.98;50.05;94657.84;5009567;28;20647;-78
2022/01/22 03:58:24;;;;;;;3.20;2.70;;;;;;;-0.73;49.71;94657.59;5026673;28;20543;-79
2022/01/22 04:01:08;;;;;;;3.40;3.00;;;;;;;-0.89;49.06;94658.84;5026327;28;20188;-79
2022/01/22 04:03:38;;;;;;;2.22;2.13;;;;;;;-0.88;49.31;94651.97;5008903;28;20183;-78
2022/01/22 04:06:39;;;;;;;2.53;2.33;;;;;;;-0.99;49.59;94650.25;5009937;28;20180;-79
2022/01/22 04:08:59;;;;;;;1.67;1.55;;;;;;;-1.30;50.31;94662.97;5026461;28;20267;-79
2022/01/22 04:11:27;;;;;;;4.70;2.60;;;;;;;-1.12;49.69;94660.72;5023003;28;20189;-78
2022/01/22 04:13:59;;;;;;;3.08;2.78;;;;;;;-0.74;49.63;94667.09;5005569;28;20220;-79
2022/01/22 04:16:24;;;;;;;2.95;2.70;;;;;;;-1.33;50.93;94663.22;5025086;28;20204;-79
2022/01/22 04:27:11;;;;;;;3.33;2.33;;;;;;;-0.83;49.75;94660.13;5006273;28;20180;-78
2022/01/22 04:29:38;;;;;;;1.75;1.65;;;;;;;-1.05;49.77;94650.75;5011098;28;20273;-78
2022/01/22 04:32:05;;;;;;;2.00;1.67;;;;;;;-1.47;50.81;94625.00;5013068;28;20710;-78
2022/01/22 04:34:30;;;;;;;6.45;2.40;;;;;;;-1.56;50.99;94639.38;5037468;28;20184;-78
2022/01/22 04:36:56;;;;;;;2.20;2.10;;;;;;;-1.36;50.61;94630.09;5031542;28;20186;-79
2022/01/22 04:39:23;;;;;;;3.30;3.00;;;;;;;-1.15;51.02;94627.56;5014884;28;20187;-78
2022/01/22 04:41:52;;;;;;;5.18;2.08;;;;;;;-0.74;49.60;94638.81;5029833;28;20228;-80
2022/01/22 04:44:18;;;;;;;3.83;3.47;;;;;;;-0.59;49.39;94634.16;5028528;28;20662;-80
2022/01/22 04:47:13;;;;;;;3.20;2.83;;;;;;;-0.82;50.64;94628.34;5028721;28;20184;-80
2022/01/22 04:54:57;;;;;;;3.50;2.20;;;;;;;-0.80;50.86;94623.88;5048576;28;20270;-78
2022/01/22 04:55:25;;;;;;;1.67;1.60;;;;;;;-1.00;51.26;94623.75;5048770;28;20176;-78
2022/01/22 04:57:51;;;;;;;2.80;2.43;;;;;;;-1.03;51.26;94613.72;5031936;28;20207;-78
2022/01/22 05:00:19;;;;;;;4.63;2.90;;;;;;;-0.88;51.17;94613.44;5048837;28;20187;-78
2022/01/22 05:02:45;;;;;;;2.83;2.58;;;;;;;-0.80;51.47;94611.03;5032744;28;20242;-78
2022/01/22 05:05:10;;;;;;;3.80;3.50;;;;;;;-0.44;50.32;94599.50;5049624;28;20187;-79
2022/01/22 05:07:36;;;;;;;3.80;3.43;;;;;;;-1.01;51.68;94613.63;5031421;28;20214;-80
2022/01/22 05:10:08;;;;;;;3.50;3.20;;;;;;;-0.75;51.58;94610.69;5039059;28;20541;-78
2022/01/22 05:12:34;;;;;;;2.97;2.40;;;;;;;-0.69;51.59;94618.69;5051649;28;20179;-79
2022/01/22 05:15:00;;;;;;;6.88;3.97;;;;;;;-0.61;52.10;94607.78;5030801;28;20638;-79
2022/01/22 05:17:26;;;;;;;3.63;2.80;;;;;;;-1.05;52.26;94600.19;5031358;28;20287;-79
2022/01/22 05:25:44;;;;;;;3.20;2.95;;;;;;;-1.04;51.62;94606.97;5050383;28;20256;-79
2022/01/22 05:31:20;;;;;;;4.68;2.92;;;;;;;-1.20;52.36;94604.00;5008834;28;20193;-79
2022/01/22 05:37:03;;;;;;;2.53;1.70;;;;;;;-1.16;52.42;94613.09;4967992;28;20190;-78
2022/01/22 05:39:31;;;;;;;2.75;2.50;;;;;;;-1.47;53.15;94625.00;5032028;28;20187;-78
2022/01/22 05:42:02;;;;;;;2.30;1.90;;;;;;;-1.72;54.24;94621.81;5032864;28;20187;-79
2022/01/22 05:44:31;;;;;;;3.10;2.83;;;;;;;-1.05;52.54;94618.19;5050058;28;20197;-79
2022/01/22 05:47:02;;;;;;;4.05;3.72;;;;;;;-0.94;52.51;94622.47;5049612;28;20191;-78
2022/01/22 05:49:30;;;;;;;5.43;3.30;;;;;;;-1.04;53.02;94621.59;5031557;28;20233;-78
2022/01/22 05:51:57;;;;;;;4.57;3.13;;;;;;;-1.68;54.21;94609.56;5048889;28;20215;-78
2022/01/22 05:59:42;;;;;;;2.75;1.63;;;;;;;-1.80;54.20;94593.38;5049512;28;20210;-78
2022/01/22 06:02:13;;;;;;;5.30;3.10;;;;;;;-1.27;54.11;94620.84;5032919;28;20195;-78
2022/01/22 06:04:43;;;;;;;3.10;2.90;;;;;;;-0.79;52.79;94610.94;5032819;28;20184;-79
2022/01/22 06:07:14;;;;;;;8.48;3.80;;;;;;;-1.03;53.73;94603.47;5050366;28;20184;-78
2022/01/22 06:09:54;;;;;;;4.00;3.70;;;;;;;-0.68;52.44;94601.53;5031269;28;20187;-81
2022/01/22 06:12:37;;;;;;;3.10;2.38;;;;;;;-1.22;54.07;94599.00;5030819;28;20194;-78
2022/01/22 06:15:03;;;;;;;3.30;3.00;;;;;;;-1.40;54.95;94601.31;5019685;28;20198;-79
2022/01/22 06:17:29;;;;;;;6.38;4.80;;;;;;;-1.04;54.40;94601.84;5028673;28;20192;-79
2022/01/22 06:19:54;;;;;;;7.80;2.63;;;;;;;-1.12;53.89;94606.81;5018194;28;20255;-79
2022/01/22 06:22:20;;;;;;;4.00;2.87;;;;;;;-1.50;55.08;94605.56;5031912;28;20729;-79
2022/01/22 06:24:45;;;;;;;2.43;2.23;;;;;;;-1.57;54.05;94607.78;5031765;28;20175;-78
2022/01/22 06:27:11;;;;;;;10.37;2.53;;;;;;;-1.28;53.83;94608.97;5031940;28;20195;-78
2022/01/22 06:29:36;;;;;;;6.13;3.23;;;;;;;-0.86;53.08;94601.28;5048621;28;20242;-78
2022/01/22 06:32:02;;;;;;;3.53;2.43;;;;;;;-1.49;53.86;94608.91;5030629;28;20218;-78
2022/01/22 06:34:35;;;;;;;3.60;3.03;;;;;;;-1.38;53.92;94614.81;5017581;28;20199;-80
2022/01/22 06:37:01;;;;;;;5.43;3.58;;;;;;;-1.63;54.36;94612.56;5048813;28;20194;-78
2022/01/22 06:39:40;;;;;;;3.80;3.00;;;;;;;-1.54;54.49;94609.28;5052551;28;20172;-77
2022/01/22 06:42:11;;;;;;;1.88;1.77;;;;;;;-1.56;54.30;94603.44;5068999;28;20177;-78
2022/01/22 06:44:37;;;;;;;8.10;3.60;;;;;;;-1.18;53.50;94604.69;5034960;28;20561;-78
2022/01/22 06:47:03;;;;;;;7.35;3.65;;;;;;;-1.32;53.80;94598.13;5035682;28;20202;-78
2022/01/22 06:49:30;;;;;;;5.23;3.50;;;;;;;-1.01;52.93;94583.59;5032587;28;20203;-79
2022/01/22 06:51:56;;;;;;;3.53;3.22;;;;;;;-0.38;51.70;94585.28;5029833;28;20465;-79
2022/01/22 06:54:22;;;;;;;3.93;3.63;;;;;;;-0.64;51.77;94584.94;5028942;28;20261;-78
2022/01/22 06:56:48;;;;;;;7.40;4.28;;;;;;;-0.66;52.81;94584.25;5038966;28;20197;-78
2022/01/22 06:59:13;;;;;;;9.00;4.37;;;;;;;-0.52;51.61;94589.03;5060003;28;20589;-77
2022/01/22 07:01:44;;;;;;;4.30;3.90;;;;;;;-0.88;51.98;94577.47;5045828;28;20822;-78
2022/01/22 07:04:13;;;;;;;4.35;3.90;;;;;;;-0.99;52.65;94583.47;5031312;28;20172;-78
2022/01/22 07:06:39;;;;;;;4.82;4.20;;;;;;;-1.20;52.87;94575.78;5036553;28;20187;-77
2022/01/22 07:09:07;;;;;;;4.63;3.73;;;;;;;-0.59;52.12;94577.63;5047009;28;20555;-78
2022/01/22 07:11:32;;;;;;;5.07;4.30;;;;;;;-0.75;51.48;94585.00;5029844;28;20498;-79
2022/01/22 07:13:58;;;;;;;7.20;3.77;;;;;;;-0.64;50.54;94569.50;5029972;28;20272;-78
2022/01/22 07:16:25;;;;;;;6.30;2.80;;;;;;;-0.37;50.65;94579.22;5036015;28;20434;-78
2022/01/22 07:19:17;;;;;;;2.97;2.33;;;;;;;-0.48;50.05;94579.31;5040467;28;20235;-78
2022/01/22 07:22:03;;;;;;;15.32;3.75;;;;;;;-0.29;50.10;94574.25;5048488;28;20290;-78
2022/01/22 07:24:36;;;;;;;6.50;4.18;;;;;;;-0.05;49.59;94565.41;5032582;28;20282;-78
2022/01/22 07:27:02;;;;;;;10.55;3.78;;;;;;;0.21;49.57;94565.72;5028674;28;20198;-78
2022/01/22 07:29:28;;;;;;;6.50;3.00;;;;;;;0.23;49.97;94565.56;5063554;28;20231;-77
2022/01/22 07:32:01;;;;;;;4.47;3.67;;;;;;;0.41;49.00;94563.97;5028241;28;20221;-77
2022/01/22 07:34:38;;;;;;;4.45;3.70;;;;;;;1.02;47.78;94567.22;5027194;28;20263;-77
2022/01/22 07:37:04;;;;;;;5.25;4.38;;;;;;;1.22;47.34;94558.50;5028802;28;20195;-76
2022/01/22 07:40:06;;;;;;;7.83;3.50;;;;;;;1.05;48.11;94557.47;5029273;28;20278;-77
2022/01/22 07:42:44;;;;;;;;;;;;;;;;;;;;;
2022/01/22 07:45:20;;;;;;;5.90;2.85;;;;;;;0.48;48.80;94556.56;4997723;28;20284;-76
2022/01/22 07:48:06;;;;;;;3.00;2.70;;;;;;;0.53;48.63;94552.63;5004505;28;20356;-77
2022/01/22 07:50:32;;;;;;;2.90;2.58;;;;;;;0.82;48.22;94551.81;5004249;28;20219;-77
2022/01/22 08:16:46;;;;;;;4.25;3.83;;;;;;;0.05;50.57;94542.28;5046862;28;20257;-77
2022/01/22 09:12:03;;;;;;;1.85;1.75;;;;;;;0.37;48.55;94529.16;4989779;28;20252;-78
2022/01/22 09:32:57;;;;;;;2.92;2.53;;;;;;;2.00;44.92;94531.63;5036073;28;20260;-78
2022/01/22 09:35:22;;;;;;;3.77;3.03;;;;;;;2.13;44.77;94524.34;5036497;28;20226;-75
2022/01/22 09:37:48;;;;;;;2.93;2.73;;;;;;;2.59;43.73;94532.03;5042182;28;20711;-76
2022/01/22 09:40:14;;;;;;;5.97;3.43;;;;;;;2.40;44.07;94518.31;5036080;28;20570;-79
2022/01/22 09:42:42;;;;;;;3.43;3.13;;;;;;;2.04;45.33;94512.31;5029522;28;20194;-79
2022/01/22 09:45:09;;;;;;;3.40;3.10;;;;;;;2.50;44.02;94500.97;5036923;28;20217;-76
2022/01/22 09:47:35;;;;;;;2.25;1.98;;;;;;;1.98;44.37;94495.63;5048041;28;20500;-78
2022/01/22 09:50:03;;;;;;;9.00;4.03;;;;;;;2.82;43.92;94486.69;5024297;28;20210;-78
2022/01/22 09:52:29;;;;;;;5.65;5.05;;;;;;;2.65;43.00;94479.78;5030017;28;20187;-77
2022/01/22 09:54:54;;;;;;;4.80;3.83;;;;;;;3.20;43.15;94465.75;5043831;28;20184;-77
2022/01/22 09:57:20;;;;;;;11.13;4.20;;;;;;;2.79;43.15;94468.91;5027857;28;20233;-77
2022/01/22 09:59:46;;;;;;;4.32;4.05;;;;;;;3.05;43.71;94465.50;5028643;28;20210;-77
2022/01/22 10:02:18;;;;;;;9.30;4.13;;;;;;;2.41;45.16;94457.97;5051327;28;20191;-77
2022/01/22 10:04:45;;;;;;;3.22;2.72;;;;;;;2.14;44.09;94462.25;5032331;28;20245;-76
2022/01/22 10:07:28;;;;;;;6.15;3.55;;;;;;;1.91;45.76;94461.84;5052823;28;20193;-76
2022/01/22 10:10:03;;;;;;;3.42;3.10;;;;;;;1.82;44.43;94446.44;5020624;28;20650;-77
2022/01/22 10:12:30;;;;;;;3.47;2.88;;;;;;;1.67;45.07;94454.69;5028803;28;20194;-77
2022/01/22 10:15:16;;;;;;;1.70;1.60;;;;;;;1.38;44.57;94448.84;5047211;28;20175;-76
2022/01/22 10:17:50;;;;;;;2.63;2.42;;;;;;;0.91;46.24;94457.41;5041916;28;20567;-77
2022/01/22 10:20:23;;;;;;;3.40;3.05;;;;;;;1.11;46.83;94458.19;5042204;28;20167;-77
2022/01/22 10:22:58;;;;;;;3.45;3.17;;;;;;;1.10;46.58;94454.81;5028974;28;20205;-77
2022/01/22 10:25:27;;;;;;;4.05;3.15;;;;;;;1.35;46.18;94455.13;5047532;28;20190;-77
2022/01/22 10:28:05;;;;;;;7.75;4.00;;;;;;;2.07;45.23;94450.88;5046315;28;20191;-77
2022/01/22 10:30:36;;;;;;;3.53;3.28;;;;;;;2.51;44.29;94450.13;5044576;28;20195;-77
2022/01/22 10:33:33;;;;;;;3.47;2.95;;;;;;;2.21;43.97;94446.16;5046918;28;20219;-77
2022/01/22 10:36:17;;;;;;;3.03;2.83;;;;;;;2.56;43.28;94439.34;5044035;28;20227;-77
2022/01/22 10:38:49;;;;;;;2.75;2.55;;;;;;;2.51;43.36;94439.81;5047109;28;20206;-76
2022/01/22 10:41:19;;;;;;;3.30;2.95;;;;;;;3.09;42.61;94422.88;5055780;28;20206;-77
2022/01/22 10:43:55;;;;;;;3.45;2.30;;;;;;;2.84;42.18;94421.94;5042516;28;20290;-77
2022/01/22 10:48:59;;;;;;;3.30;3.00;;;;;;;3.55;40.29;94415.66;5051221;28;20601;-76
2022/01/22 10:51:28;;;;;;;7.53;4.20;;;;;;;3.84;39.44;94409.25;5048554;28;20191;-77
2022/01/22 10:53:58;;;;;;;8.67;4.30;;;;;;;4.33;39.43;94406.72;5028101;28;20194;-76
2022/01/22 10:56:29;;;;;;;11.13;4.10;;;;;;;4.71;37.90;94409.63;5046451;28;20478;-77
2022/01/22 11:23:43;;;;;;;4.57;2.17;;;;;;;5.12;35.76;94382.78;5026363;28;20561;-78
2022/01/22 11:37:43;;;;;;;4.67;2.80;;;;;;;4.17;38.81;94347.16;4869058;29;20503;-78
2022/01/22 11:40:15;;;;;;;3.80;2.33;;;;;;;3.47;40.16;94369.88;4868755;29;20420;-77
2022/01/22 11:42:57;;;;;;;2.63;2.43;;;;;;;4.16;39.54;94372.25;4862381;29;20483;-76
2022/01/22 11:45:30;;;;;;;6.53;3.70;;;;;;;3.27;41.42;94369.31;4963190;28;20420;-76
2022/01/22 11:48:10;;;;;;;4.37;3.10;;;;;;;3.05;41.05;94375.03;4956498;29;20457;-77
2022/01/22 11:50:36;;;;;;;4.40;2.50;;;;;;;1.97;43.23;94372.72;4980054;28;20487;-77
2022/01/22 11:53:32;;;;;;;5.13;3.20;;;;;;;2.30;43.56;94373.00;4967107;28;21119;-77
2022/01/22 11:56:09;;;;;;;4.85;3.70;;;;;;;2.32;44.13;94368.50;4973070;28;20178;-76
2022/01/22 11:58:56;;;;;;;3.30;2.53;;;;;;;2.15;44.39;94386.44;4985224;28;20190;-77
2022/01/22 12:04:16;;;;;;;4.28;2.35;;;;;;;2.09;44.50;94368.97;4996462;28;20439;-77
2022/01/22 12:07:00;;;;;;;4.10;3.50;;;;;;;2.12;44.85;94367.84;5013708;28;20193;-77
2022/01/22 12:09:26;;;;;;;4.55;3.25;;;;;;;2.06;45.45;94360.72;5019378;28;20210;-77
2022/01/22 12:14:47;;;;;;;4.45;3.38;;;;;;;1.50;47.41;94367.75;5024494;28;20969;-77
2022/01/22 12:17:19;;;;;;;7.13;3.78;;;;;;;2.11;46.76;94364.47;5008105;28;20199;-76
2022/01/22 12:20:03;;;;;;;4.00;3.70;;;;;;;2.11;47.18;94364.47;5025727;28;20188;-77
2022/01/22 12:22:35;;;;;;;3.90;3.13;;;;;;;2.60;45.70;94365.75;5024242;28;20188;-78
2022/01/22 12:25:23;;;;;;;3.45;2.50;;;;;;;1.79;47.44;94369.34;5024869;28;20238;-77
2022/01/22 12:27:51;;;;;;;3.42;3.13;;;;;;;1.90;48.63;94362.19;5028636;28;20183;-76
2022/01/22 12:30:51;;;;;;;4.95;3.20;;;;;;;2.18;49.08;94369.81;5008595;28;20215;-76
2022/01/22 12:33:30;;;;;;;3.08;2.60;;;;;;;1.67;50.98;94373.91;5006640;28;20191;-77
2022/01/22 12:36:18;;;;;;;2.85;2.63;;;;;;;1.70;51.97;94379.56;5014335;28;20175;-77
2022/01/22 12:38:49;;;;;;;4.55;4.22;;;;;;;2.19;50.42;94370.66;5029066;28;20188;-76
2022/01/22 12:44:33;;;;;;;3.95;3.60;;;;;;;1.86;52.16;94370.38;5028245;28;20207;-77
2022/01/22 12:47:02;;;;;;;5.80;4.10;;;;;;;2.58;50.51;94365.09;5028423;28;20169;-77
2022/01/22 12:49:29;;;;;;;6.15;4.68;;;;;;;2.83;50.24;94353.94;5012397;28;20254;-76
2022/01/22 12:52:01;;;;;;;4.32;3.92;;;;;;;2.52;48.97;94351.03;5016467;28;20187;-76
2022/01/22 12:54:32;;;;;;;3.17;2.80;;;;;;;1.53;50.05;94350.25;5013012;28;20246;-77
2022/01/22 12:57:06;;;;;;;4.05;3.75;;;;;;;2.01;50.38;94353.44;5031437;28;20187;-77
2022/01/22 12:59:34;;;;;;;5.88;3.13;;;;;;;1.78;50.66;94345.31;5018649;28;20189;-76
2022/01/22 13:02:00;;;;;;;3.83;2.80;;;;;;;2.11;49.83;94343.03;5021103;28;20180;-77
2022/01/22 13:04:26;;;;;;;1.93;1.83;;;;;;;1.81;50.34;94341.66;5031960;28;20559;-77
2022/01/22 13:06:53;;;;;;;2.63;2.23;;;;;;;1.66;49.88;94324.09;5016580;28;20422;-77
2022/01/22 13:09:19;;;;;;;5.65;3.65;;;;;;;2.08;47.96;94313.13;5023261;28;20578;-76
2022/01/22 13:11:50;;;;;;;3.60;3.40;;;;;;;1.77;48.64;94314.53;5011564;28;20176;-77
2022/01/22 13:14:27;;;;;;;3.40;2.53;;;;;;;1.66;47.10;94303.47;5010598;28;20619;-75
2022/01/22 13:16:54;;;;;;;3.38;3.00;;;;;;;1.79;48.46;94307.47;5028936;28;20206;-76
2022/01/22 13:19:21;;;;;;;3.42;2.97;;;;;;;1.58;48.21;94315.50;5016825;28;20218;-76
2022/01/22 13:21:57;;;;;;;2.60;2.38;;;;;;;1.15;48.53;94299.75;5016036;28;20287;-77
2022/01/22 13:24:25;;;;;;;3.10;2.50;;;;;;;1.50;48.67;94300.75;5016938;28;20239;-76
2022/01/22 13:27:02;;;;;;;1.77;1.67;;;;;;;1.97;47.93;94307.41;5034188;28;20194;-76
2022/01/22 13:29:34;;;;;;;2.40;2.20;;;;;;;1.44;48.24;94303.91;5028009;28;20544;-76
2022/01/22 13:32:02;;;;;;;4.43;3.85;;;;;;;2.07;47.35;94305.56;5011627;28;20187;-77
2022/01/22 13:34:46;;;;;;;4.38;2.92;;;;;;;1.80;48.05;94296.97;5027776;28;20298;-77
2022/01/22 13:38:01;;;;;;;3.95;3.65;;;;;;;1.54;48.95;94299.50;5016141;28;20180;-76
2022/01/22 13:48:32;;;;;;;4.95;4.20;;;;;;;2.21;47.98;94305.00;5029160;28;20226;-76
2022/01/22 13:51:00;;;;;;;4.05;3.75;;;;;;;1.91;46.83;94286.41;5009986;28;20695;-76
2022/01/22 13:53:26;;;;;;;3.20;3.00;;;;;;;1.26;47.47;94301.34;5018314;28;20191;-76
2022/01/22 13:56:09;;;;;;;6.07;4.00;;;;;;;1.79;45.60;94299.72;5025707;28;20180;-76
2022/01/22 13:58:35;;;;;;;4.35;3.83;;;;;;;1.78;45.85;94293.72;5019220;28;20184;-77
2022/01/22 14:01:08;;;;;;;3.35;3.05;;;;;;;2.34;44.84;94296.88;5028157;28;20169;-76
2022/01/22 14:03:44;;;;;;;5.97;2.65;;;;;;;2.20;44.73;94290.50;5030266;28;20185;-77
2022/01/22 14:06:10;;;;;;;4.50;3.38;;;;;;;2.70;44.46;94297.53;5009612;28;20198;-76
2022/01/22 14:08:36;;;;;;;5.53;4.05;;;;;;;2.11;44.77;94286.25;5027599;28;20199;-77
2022/01/22 14:11:06;;;;;;;4.23;3.83;;;;;;;1.95;45.95;94289.50;5011218;28;20209;-76
2022/01/22 14:13:32;;;;;;;5.15;4.55;;;;;;;2.21;46.52;94291.31;5015746;28;20430;-76
2022/01/22 14:16:15;;;;;;;4.20;3.90;;;;;;;2.60;45.24;94298.59;5017448;28;20210;-78
2022/01/22 14:18:42;;;;;;;5.85;4.47;;;;;;;1.81;47.12;94290.06;5014979;28;20203;-76
2022/01/22 14:21:12;;;;;;;4.50;2.40;;;;;;;1.55;46.90;94293.38;5005480;28;20181;-76
2022/01/22 14:23:39;;;;;;;3.65;3.35;;;;;;;1.86;46.78;94298.13;5014250;28;20259;-76
2022/01/22 14:26:28;;;;;;;4.60;2.25;;;;;;;1.82;47.13;94312.31;5027961;28;20243;-76
2022/01/22 14:28:57;;;;;;;3.80;3.40;;;;;;;2.24;46.53;94312.47;5027134;28;20192;-76
2022/01/22 14:31:35;;;;;;;5.80;3.90;;;;;;;2.30;47.53;94305.88;5044691;28;20192;-77
2022/01/22 14:34:11;;;;;;;5.80;5.07;;;;;;;1.88;48.86;94298.81;5041273;28;20190;-77
2022/01/22 14:36:47;;;;;;;8.35;4.47;;;;;;;1.94;48.25;94300.81;5026800;28;20240;-76
2022/01/22 14:39:26;;;;;;;4.43;4.03;;;;;;;1.88;48.87;94296.25;5026829;28;20187;-76
2022/01/22 14:44:50;;;;;;;9.45;3.47;;;;;;;1.40;48.69;94302.59;5033463;28;20240;-76
2022/01/22 14:47:24;;;;;;;6.13;4.10;;;;;;;1.58;48.28;94300.81;5032791;28;20211;-77
2022/01/22 14:49:53;;;;;;;7.45;5.18;;;;;;;1.55;48.63;94306.28;5031000;28;20218;-76
2022/01/22 14:52:28;;;;;;;5.90;4.85;;;;;;;1.38;49.10;94312.25;5030864;28;20192;-76
2022/01/22 14:54:56;;;;;;;3.53;2.72;;;;;;;1.23;50.10;94305.00;5017382;28;20184;-76
2022/01/22 14:57:27;;;;;;;3.60;3.13;;;;;;;1.04;50.37;94312.84;5026985;28;20215;-76
2022/01/22 14:59:53;;;;;;;2.33;2.13;;;;;;;0.91;50.92;94305.44;5028912;28;20176;-76
2022/01/22 15:02:19;;;;;;;2.67;2.38;;;;;;;1.06;50.54;94309.16;5008683;28;20276;-76
2022/01/22 15:04:44;;;;;;;3.67;2.67;;;;;;;0.98;51.35;94304.72;5008275;28;20247;-77
2022/01/22 15:07:13;;;;;;;4.80;2.83;;;;;;;1.07;51.81;94315.94;5012349;28;20188;-77
2022/01/22 15:09:41;;;;;;;3.20;1.88;;;;;;;0.86;52.60;94311.06;5032131;28;20215;-76
2022/01/22 15:12:08;;;;;;;4.07;3.67;;;;;;;0.86;53.20;94316.19;5013889;28;20190;-77
2022/01/22 15:14:34;;;;;;;8.30;2.92;;;;;;;0.64;53.56;94326.88;5026264;28;20212;-76
2022/01/22 15:19:33;;;;;;;4.05;3.75;;;;;;;1.02;52.91;94322.50;5033521;28;20202;-76
2022/01/22 15:21:59;;;;;;;6.05;3.80;;;;;;;1.09;53.46;94326.13;5029373;28;20199;-76
2022/01/22 15:24:26;;;;;;;5.43;3.83;;;;;;;1.19;53.19;94326.88;5025421;28;20212;-77
2022/01/22 15:26:52;;;;;;;7.70;3.72;;;;;;;0.92;54.16;94333.66;5031696;28;20188;-75
2022/01/22 15:29:24;;;;;;;5.15;3.63;;;;;;;0.78;54.05;94332.38;5021742;28;20200;-75
2022/01/22 15:36:55;;;;;;;4.53;4.10;;;;;;;0.42;55.04;94346.03;5048534;28;20175;-75
2022/01/22 15:39:21;;;;;;;6.40;3.53;;;;;;;0.64;54.93;94350.03;5013724;28;20272;-75
2022/01/22 15:41:47;;;;;;;6.00;5.40;;;;;;;0.10;56.72;94354.91;5027782;28;20187;-75
2022/01/22 15:44:13;;;;;;;7.15;5.63;;;;;;;0.75;54.96;94355.00;5032225;28;20439;-75
2022/01/22 15:46:42;;;;;;;4.40;4.00;;;;;;;0.84;53.96;94343.88;5035771;28;20188;-75
2022/01/22 15:49:14;;;;;;;5.22;4.70;;;;;;;-0.08;56.33;94353.00;5014383;28;20191;-74
2022/01/22 15:51:41;;;;;;;4.78;4.22;;;;;;;0.30;56.60;94350.53;5010340;28;20276;-74
2022/01/22 15:54:07;;;;;;;4.72;4.30;;;;;;;0.56;56.04;94356.69;5027701;28;20599;-75
2022/01/22 15:56:32;;;;;;;5.17;3.90;;;;;;;0.11;56.51;94351.38;5026899;28;20203;-74
2022/01/22 15:58:58;;;;;;;6.13;3.83;;;;;;;0.46;55.07;94355.91;5027684;28;20176;-76
2022/01/22 16:01:23;;;;;;;3.80;3.50;;;;;;;0.32;55.43;94366.63;5026185;28;20184;-75
2022/01/22 16:03:55;;;;;;;2.90;2.80;;;;;;;0.33;55.09;94370.84;5031732;28;20243;-78